sensor_id;sensor_type;location;lat;lon;timestamp;temperature;humidity
54680;DHT22;40578;53.178;5.846;2024-01-10T00:01:33;-2.90;99.90
54680;DHT22;40578;53.178;5.846;2024-01-10T00:03:59;-3.00;99.90
54680;DHT22;40578;53.178;5.846;2024-01-10T00:06:25;-3.00;99.90
54680;DHT22;40578;53.178;5.846;2024-01-10T00:08:50;-3.10;99.90
54680;DHT22;40578;53.178;5.846;2024-01-10T00:11:16;-3.00;99.90
54680;DHT22;40578;53.178;5.846;2024-01-10T00:13:42;-3.00;99.90
54680;DHT22;40578;53.178;5.846;2024-01-10T00:16:07;-2.90;99.90
54680;DHT22;40578;53.178;5.846;2024-01-10T00:18:33;-3.00;99.90
54680;DHT22;40578;53.178;5.846;2024-01-10T00:20:59;-3.00;99.90
54680;DHT22;40578;53.178;5.846;2024-01-10T00:23:25;-3.00;99.90
54680;DHT22;40578;53.178;5.846;2024-01-10T00:25:50;-2.90;99.90
54680;DHT22;40578;53.178;5.846;2024-01-10T00:28:16;-3.00;99.90
54680;DHT22;40578;53.178;5.846;2024-01-10T00:30:43;-3.10;99.90
54680;DHT22;40578;53.178;5.846;2024-01-10T00:33:09;-3.10;99.90
54680;DHT22;40578;53.178;5.846;2024-01-10T00:35:35;-3.00;99.90
54680;DHT22;40578;53.178;5.846;2024-01-10T00:38:00;-3.00;99.90
54680;DHT22;40578;53.178;5.846;2024-01-10T00:40:26;-3.00;99.90
54680;DHT22;40578;53.178;5.846;2024-01-10T00:42:52;-3.00;99.90
54680;DHT22;40578;53.178;5.846;2024-01-10T00:45:17;-3.10;99.90
54680;DHT22;40578;53.178;5.846;2024-01-10T00:47:43;-3.10;99.90
54680;DHT22;40578;53.178;5.846;2024-01-10T00:50:09;-3.10;99.90
54680;DHT22;40578;53.178;5.846;2024-01-10T00:52:34;-3.00;99.90
54680;DHT22;40578;53.178;5.846;2024-01-10T00:55:00;-3.10;99.90
54680;DHT22;40578;53.178;5.846;2024-01-10T00:57:26;-3.10;99.90
54680;DHT22;40578;53.178;5.846;2024-01-10T00:59:51;-3.00;99.90
54680;DHT22;40578;53.178;5.846;2024-01-10T01:02:17;-3.10;99.90
54680;DHT22;40578;53.178;5.846;2024-01-10T01:04:43;-3.00;99.90
54680;DHT22;40578;53.178;5.846;2024-01-10T01:07:08;-3.00;99.90
54680;DHT22;40578;53.178;5.846;2024-01-10T01:09:34;-3.00;99.90
54680;DHT22;40578;53.178;5.846;2024-01-10T01:12:00;-3.10;99.90
54680;DHT22;40578;53.178;5.846;2024-01-10T01:14:26;-3.10;99.90
54680;DHT22;40578;53.178;5.846;2024-01-10T01:16:51;-3.00;99.90
54680;DHT22;40578;53.178;5.846;2024-01-10T01:19:17;-3.00;99.90
54680;DHT22;40578;53.178;5.846;2024-01-10T01:21:43;-2.90;99.90
54680;DHT22;40578;53.178;5.846;2024-01-10T01:24:08;-3.10;99.90
54680;DHT22;40578;53.178;5.846;2024-01-10T01:26:34;-3.00;99.90
54680;DHT22;40578;53.178;5.846;2024-01-10T01:29:00;-2.90;99.90
54680;DHT22;40578;53.178;5.846;2024-01-10T01:31:25;-3.10;99.90
54680;DHT22;40578;53.178;5.846;2024-01-10T01:33:51;-3.10;99.90
54680;DHT22;40578;53.178;5.846;2024-01-10T01:36:17;-3.10;99.90
54680;DHT22;40578;53.178;5.846;2024-01-10T01:38:43;-3.10;99.90
54680;DHT22;40578;53.178;5.846;2024-01-10T01:41:08;-3.10;99.90
54680;DHT22;40578;53.178;5.846;2024-01-10T01:43:34;-3.00;99.90
54680;DHT22;40578;53.178;5.846;2024-01-10T01:46:01;-3.00;99.90
54680;DHT22;40578;53.178;5.846;2024-01-10T01:48:28;-3.10;99.90
54680;DHT22;40578;53.178;5.846;2024-01-10T01:51:00;-3.00;99.90
54680;DHT22;40578;53.178;5.846;2024-01-10T01:53:26;-3.10;99.90
54680;DHT22;40578;53.178;5.846;2024-01-10T01:55:54;-3.20;99.90
54680;DHT22;40578;53.178;5.846;2024-01-10T01:58:21;-3.20;99.90
54680;DHT22;40578;53.178;5.846;2024-01-10T02:00:48;-3.20;99.90
54680;DHT22;40578;53.178;5.846;2024-01-10T02:03:14;-3.00;99.90
54680;DHT22;40578;53.178;5.846;2024-01-10T02:05:39;-3.10;99.90
54680;DHT22;40578;53.178;5.846;2024-01-10T02:08:05;-3.20;99.90
54680;DHT22;40578;53.178;5.846;2024-01-10T02:10:31;-3.20;99.90
54680;DHT22;40578;53.178;5.846;2024-01-10T02:12:57;-3.10;99.90
54680;DHT22;40578;53.178;5.846;2024-01-10T02:15:23;-3.20;99.90
54680;DHT22;40578;53.178;5.846;2024-01-10T02:17:49;-3.10;99.90
54680;DHT22;40578;53.178;5.846;2024-01-10T02:20:15;-3.60;99.90
54680;DHT22;40578;53.178;5.846;2024-01-10T02:22:44;-3.20;99.90
54680;DHT22;40578;53.178;5.846;2024-01-10T02:25:10;-3.10;99.90
54680;DHT22;40578;53.178;5.846;2024-01-10T02:27:37;-3.10;99.90
54680;DHT22;40578;53.178;5.846;2024-01-10T02:30:03;-3.20;99.90
54680;DHT22;40578;53.178;5.846;2024-01-10T02:32:29;-3.10;99.90
54680;DHT22;40578;53.178;5.846;2024-01-10T02:34:55;-3.10;99.90
54680;DHT22;40578;53.178;5.846;2024-01-10T02:37:21;-3.20;99.90
54680;DHT22;40578;53.178;5.846;2024-01-10T02:39:46;-3.10;99.90
54680;DHT22;40578;53.178;5.846;2024-01-10T02:42:12;-3.20;99.90
54680;DHT22;40578;53.178;5.846;2024-01-10T02:44:38;-3.20;99.90
54680;DHT22;40578;53.178;5.846;2024-01-10T02:47:04;-3.20;99.90
54680;DHT22;40578;53.178;5.846;2024-01-10T02:49:29;-3.10;99.90
54680;DHT22;40578;53.178;5.846;2024-01-10T02:51:55;-3.20;99.90
54680;DHT22;40578;53.178;5.846;2024-01-10T02:54:21;-3.10;99.90
54680;DHT22;40578;53.178;5.846;2024-01-10T02:56:46;-3.20;99.90
54680;DHT22;40578;53.178;5.846;2024-01-10T02:59:12;-3.10;99.90
54680;DHT22;40578;53.178;5.846;2024-01-10T03:01:37;-3.20;99.90
54680;DHT22;40578;53.178;5.846;2024-01-10T03:04:03;-3.30;99.90
54680;DHT22;40578;53.178;5.846;2024-01-10T03:06:29;-3.30;99.90
54680;DHT22;40578;53.178;5.846;2024-01-10T03:08:55;-3.20;99.90
54680;DHT22;40578;53.178;5.846;2024-01-10T03:11:21;-3.30;99.90
54680;DHT22;40578;53.178;5.846;2024-01-10T03:13:47;-3.20;99.90
54680;DHT22;40578;53.178;5.846;2024-01-10T03:16:13;-3.20;99.90
54680;DHT22;40578;53.178;5.846;2024-01-10T03:18:39;-3.30;99.90
54680;DHT22;40578;53.178;5.846;2024-01-10T03:21:05;-3.40;99.90
54680;DHT22;40578;53.178;5.846;2024-01-10T03:23:30;-3.30;99.90
54680;DHT22;40578;53.178;5.846;2024-01-10T03:25:56;-3.40;99.90
54680;DHT22;40578;53.178;5.846;2024-01-10T03:28:23;-3.40;99.90
54680;DHT22;40578;53.178;5.846;2024-01-10T03:30:49;-3.40;99.90
54680;DHT22;40578;53.178;5.846;2024-01-10T03:33:14;-3.30;99.90
54680;DHT22;40578;53.178;5.846;2024-01-10T03:35:41;-3.30;99.90
54680;DHT22;40578;53.178;5.846;2024-01-10T03:38:07;-3.30;99.90
54680;DHT22;40578;53.178;5.846;2024-01-10T03:40:33;-3.40;99.90
54680;DHT22;40578;53.178;5.846;2024-01-10T03:42:59;-3.40;99.90
54680;DHT22;40578;53.178;5.846;2024-01-10T03:45:24;-3.40;99.90
54680;DHT22;40578;53.178;5.846;2024-01-10T03:47:50;-3.30;99.90
54680;DHT22;40578;53.178;5.846;2024-01-10T03:50:20;-3.50;99.90
54680;DHT22;40578;53.178;5.846;2024-01-10T03:52:46;-3.30;99.90
54680;DHT22;40578;53.178;5.846;2024-01-10T03:55:12;-3.30;99.90
54680;DHT22;40578;53.178;5.846;2024-01-10T03:57:39;-3.00;99.90
54680;DHT22;40578;53.178;5.846;2024-01-10T04:00:08;-3.30;99.90
54680;DHT22;40578;53.178;5.846;2024-01-10T04:02:36;-3.30;99.90
54680;DHT22;40578;53.178;5.846;2024-01-10T04:05:06;-3.50;99.90
54680;DHT22;40578;53.178;5.846;2024-01-10T04:07:33;-3.40;99.90
54680;DHT22;40578;53.178;5.846;2024-01-10T04:09:59;-3.40;99.90
54680;DHT22;40578;53.178;5.846;2024-01-10T04:12:24;-3.50;99.90
54680;DHT22;40578;53.178;5.846;2024-01-10T04:14:50;-3.50;99.90
54680;DHT22;40578;53.178;5.846;2024-01-10T04:17:15;-3.50;99.90
54680;DHT22;40578;53.178;5.846;2024-01-10T04:19:41;-3.50;99.90
54680;DHT22;40578;53.178;5.846;2024-01-10T04:22:06;-3.40;99.90
54680;DHT22;40578;53.178;5.846;2024-01-10T04:24:32;-3.50;99.90
54680;DHT22;40578;53.178;5.846;2024-01-10T04:26:58;-3.50;99.90
54680;DHT22;40578;53.178;5.846;2024-01-10T04:29:23;-3.50;99.90
54680;DHT22;40578;53.178;5.846;2024-01-10T04:31:49;-3.50;99.90
54680;DHT22;40578;53.178;5.846;2024-01-10T04:34:15;-3.60;99.90
54680;DHT22;40578;53.178;5.846;2024-01-10T04:36:41;-3.60;99.90
54680;DHT22;40578;53.178;5.846;2024-01-10T04:39:06;-3.50;99.90
54680;DHT22;40578;53.178;5.846;2024-01-10T04:41:32;-3.50;99.90
54680;DHT22;40578;53.178;5.846;2024-01-10T04:43:57;-3.40;99.90
54680;DHT22;40578;53.178;5.846;2024-01-10T04:46:23;-3.50;99.90
54680;DHT22;40578;53.178;5.846;2024-01-10T04:48:49;-3.50;99.90
54680;DHT22;40578;53.178;5.846;2024-01-10T04:51:14;-3.60;99.90
54680;DHT22;40578;53.178;5.846;2024-01-10T04:53:40;-3.60;99.90
54680;DHT22;40578;53.178;5.846;2024-01-10T04:56:06;-3.60;99.90
54680;DHT22;40578;53.178;5.846;2024-01-10T04:58:31;-3.50;99.90
54680;DHT22;40578;53.178;5.846;2024-01-10T05:00:58;-3.60;99.90
54680;DHT22;40578;53.178;5.846;2024-01-10T05:03:24;-3.50;99.90
54680;DHT22;40578;53.178;5.846;2024-01-10T05:05:49;-3.50;99.90
54680;DHT22;40578;53.178;5.846;2024-01-10T05:08:15;-3.60;99.90
54680;DHT22;40578;53.178;5.846;2024-01-10T05:10:41;-3.50;99.90
54680;DHT22;40578;53.178;5.846;2024-01-10T05:13:06;-3.40;99.90
54680;DHT22;40578;53.178;5.846;2024-01-10T05:15:32;-3.40;99.90
54680;DHT22;40578;53.178;5.846;2024-01-10T05:17:58;-4.80;99.90
54680;DHT22;40578;53.178;5.846;2024-01-10T05:20:23;-3.40;99.90
54680;DHT22;40578;53.178;5.846;2024-01-10T05:22:49;-3.40;99.90
54680;DHT22;40578;53.178;5.846;2024-01-10T05:25:15;-3.40;99.90
54680;DHT22;40578;53.178;5.846;2024-01-10T05:27:43;-3.40;99.90
54680;DHT22;40578;53.178;5.846;2024-01-10T05:30:09;-3.40;99.90
54680;DHT22;40578;53.178;5.846;2024-01-10T05:32:38;-3.50;99.90
54680;DHT22;40578;53.178;5.846;2024-01-10T05:35:03;-3.60;99.90
54680;DHT22;40578;53.178;5.846;2024-01-10T05:37:30;-3.50;99.90
54680;DHT22;40578;53.178;5.846;2024-01-10T05:39:56;-3.60;99.90
54680;DHT22;40578;53.178;5.846;2024-01-10T05:42:21;-3.60;99.90
54680;DHT22;40578;53.178;5.846;2024-01-10T05:44:47;-3.50;99.90
54680;DHT22;40578;53.178;5.846;2024-01-10T05:47:13;-3.60;99.90
54680;DHT22;40578;53.178;5.846;2024-01-10T05:49:38;-3.50;99.90
54680;DHT22;40578;53.178;5.846;2024-01-10T05:52:04;-3.40;99.90
54680;DHT22;40578;53.178;5.846;2024-01-10T05:54:30;-3.40;99.90
54680;DHT22;40578;53.178;5.846;2024-01-10T05:56:55;-3.50;99.90
54680;DHT22;40578;53.178;5.846;2024-01-10T05:59:21;-3.50;99.90
54680;DHT22;40578;53.178;5.846;2024-01-10T06:01:47;-3.50;99.90
54680;DHT22;40578;53.178;5.846;2024-01-10T06:04:12;-3.50;99.90
54680;DHT22;40578;53.178;5.846;2024-01-10T06:06:38;-3.50;99.90
54680;DHT22;40578;53.178;5.846;2024-01-10T06:09:03;-3.60;99.90
54680;DHT22;40578;53.178;5.846;2024-01-10T06:11:30;-3.70;99.90
54680;DHT22;40578;53.178;5.846;2024-01-10T06:13:55;-3.60;99.90
54680;DHT22;40578;53.178;5.846;2024-01-10T06:16:22;-3.50;99.90
54680;DHT22;40578;53.178;5.846;2024-01-10T06:18:48;-3.50;99.90
54680;DHT22;40578;53.178;5.846;2024-01-10T06:21:14;-3.60;99.90
54680;DHT22;40578;53.178;5.846;2024-01-10T06:23:39;-3.40;99.90
54680;DHT22;40578;53.178;5.846;2024-01-10T06:26:05;-3.60;99.90
54680;DHT22;40578;53.178;5.846;2024-01-10T06:28:32;-3.60;99.90
54680;DHT22;40578;53.178;5.846;2024-01-10T06:30:57;-3.60;99.90
54680;DHT22;40578;53.178;5.846;2024-01-10T06:33:23;-3.50;99.90
54680;DHT22;40578;53.178;5.846;2024-01-10T06:35:49;-3.50;99.90
54680;DHT22;40578;53.178;5.846;2024-01-10T06:38:14;-3.60;99.90
54680;DHT22;40578;53.178;5.846;2024-01-10T06:40:42;-3.60;99.90
54680;DHT22;40578;53.178;5.846;2024-01-10T06:43:10;-3.50;99.90
54680;DHT22;40578;53.178;5.846;2024-01-10T06:45:35;-3.50;99.90
54680;DHT22;40578;53.178;5.846;2024-01-10T06:48:01;-3.70;99.90
54680;DHT22;40578;53.178;5.846;2024-01-10T06:50:26;-3.50;99.90
54680;DHT22;40578;53.178;5.846;2024-01-10T06:52:52;-3.60;99.90
54680;DHT22;40578;53.178;5.846;2024-01-10T06:55:17;-3.50;99.90
54680;DHT22;40578;53.178;5.846;2024-01-10T06:57:44;-3.60;99.90
54680;DHT22;40578;53.178;5.846;2024-01-10T07:00:10;-3.50;99.90
54680;DHT22;40578;53.178;5.846;2024-01-10T07:02:36;-3.70;99.90
54680;DHT22;40578;53.178;5.846;2024-01-10T07:05:02;-3.70;99.90
54680;DHT22;40578;53.178;5.846;2024-01-10T07:07:31;-3.60;99.90
54680;DHT22;40578;53.178;5.846;2024-01-10T07:09:56;-3.70;99.90
54680;DHT22;40578;53.178;5.846;2024-01-10T07:12:22;-3.50;99.90
54680;DHT22;40578;53.178;5.846;2024-01-10T07:14:48;-3.50;99.90
54680;DHT22;40578;53.178;5.846;2024-01-10T07:17:13;-3.50;99.90
54680;DHT22;40578;53.178;5.846;2024-01-10T07:19:39;-3.50;99.90
54680;DHT22;40578;53.178;5.846;2024-01-10T07:22:05;-3.70;99.90
54680;DHT22;40578;53.178;5.846;2024-01-10T07:24:31;-3.70;99.90
54680;DHT22;40578;53.178;5.846;2024-01-10T07:26:57;-3.70;99.90
54680;DHT22;40578;53.178;5.846;2024-01-10T07:29:22;-3.70;99.90
54680;DHT22;40578;53.178;5.846;2024-01-10T07:31:49;-3.70;99.90
54680;DHT22;40578;53.178;5.846;2024-01-10T07:34:18;-3.70;99.90
54680;DHT22;40578;53.178;5.846;2024-01-10T07:36:43;-3.60;99.90
54680;DHT22;40578;53.178;5.846;2024-01-10T07:39:09;-3.40;99.90
54680;DHT22;40578;53.178;5.846;2024-01-10T07:41:35;-3.40;99.90
54680;DHT22;40578;53.178;5.846;2024-01-10T07:44:00;-3.50;99.90
54680;DHT22;40578;53.178;5.846;2024-01-10T07:46:26;-3.50;99.90
54680;DHT22;40578;53.178;5.846;2024-01-10T07:48:54;-3.40;99.90
54680;DHT22;40578;53.178;5.846;2024-01-10T07:51:20;-3.40;99.90
54680;DHT22;40578;53.178;5.846;2024-01-10T07:53:47;-3.50;99.90
54680;DHT22;40578;53.178;5.846;2024-01-10T07:56:14;-3.40;99.90
54680;DHT22;40578;53.178;5.846;2024-01-10T07:58:39;-3.50;99.90
54680;DHT22;40578;53.178;5.846;2024-01-10T08:01:05;-3.50;99.90
54680;DHT22;40578;53.178;5.846;2024-01-10T08:03:31;-3.50;99.90
54680;DHT22;40578;53.178;5.846;2024-01-10T08:05:56;-2.80;99.90
54680;DHT22;40578;53.178;5.846;2024-01-10T08:08:22;-3.40;99.90
54680;DHT22;40578;53.178;5.846;2024-01-10T08:10:47;-3.40;99.90
54680;DHT22;40578;53.178;5.846;2024-01-10T08:13:13;-3.40;99.90
54680;DHT22;40578;53.178;5.846;2024-01-10T08:15:39;-3.40;99.90
54680;DHT22;40578;53.178;5.846;2024-01-10T08:18:04;-3.40;99.90
54680;DHT22;40578;53.178;5.846;2024-01-10T08:20:30;-3.30;99.90
54680;DHT22;40578;53.178;5.846;2024-01-10T08:22:56;-3.40;99.90
54680;DHT22;40578;53.178;5.846;2024-01-10T08:25:22;-3.40;99.90
54680;DHT22;40578;53.178;5.846;2024-01-10T08:27:48;-3.40;99.90
54680;DHT22;40578;53.178;5.846;2024-01-10T08:30:14;-3.30;99.90
54680;DHT22;40578;53.178;5.846;2024-01-10T08:32:41;-3.30;99.90
54680;DHT22;40578;53.178;5.846;2024-01-10T08:35:06;-3.30;99.90
54680;DHT22;40578;53.178;5.846;2024-01-10T08:37:34;-3.30;99.90
54680;DHT22;40578;53.178;5.846;2024-01-10T08:40:00;-3.30;99.90
54680;DHT22;40578;53.178;5.846;2024-01-10T08:42:28;-3.20;99.90
54680;DHT22;40578;53.178;5.846;2024-01-10T08:44:54;-3.30;99.90
54680;DHT22;40578;53.178;5.846;2024-01-10T08:47:21;-3.20;99.90
54680;DHT22;40578;53.178;5.846;2024-01-10T08:49:47;-3.20;99.90
54680;DHT22;40578;53.178;5.846;2024-01-10T08:52:12;-3.10;99.90
54680;DHT22;40578;53.178;5.846;2024-01-10T08:54:38;-3.10;99.90
54680;DHT22;40578;53.178;5.846;2024-01-10T08:57:04;-3.10;99.90
54680;DHT22;40578;53.178;5.846;2024-01-10T08:59:30;-3.10;99.90
54680;DHT22;40578;53.178;5.846;2024-01-10T09:01:55;-3.00;99.90
54680;DHT22;40578;53.178;5.846;2024-01-10T09:04:21;-3.00;99.90
54680;DHT22;40578;53.178;5.846;2024-01-10T09:06:47;-3.00;99.90
54680;DHT22;40578;53.178;5.846;2024-01-10T09:09:13;-3.00;99.90
54680;DHT22;40578;53.178;5.846;2024-01-10T09:11:38;-2.90;99.90
54680;DHT22;40578;53.178;5.846;2024-01-10T09:14:04;-2.90;99.90
54680;DHT22;40578;53.178;5.846;2024-01-10T09:16:29;-1.70;99.90
54680;DHT22;40578;53.178;5.846;2024-01-10T09:18:55;-2.80;99.90
54680;DHT22;40578;53.178;5.846;2024-01-10T09:21:24;-2.90;99.90
54680;DHT22;40578;53.178;5.846;2024-01-10T09:23:50;-2.80;99.90
54680;DHT22;40578;53.178;5.846;2024-01-10T09:26:17;-2.80;99.90
54680;DHT22;40578;53.178;5.846;2024-01-10T09:28:43;-2.70;99.90
54680;DHT22;40578;53.178;5.846;2024-01-10T09:31:09;-2.80;99.90
54680;DHT22;40578;53.178;5.846;2024-01-10T09:33:35;-2.70;99.90
54680;DHT22;40578;53.178;5.846;2024-01-10T09:36:00;-2.40;99.90
54680;DHT22;40578;53.178;5.846;2024-01-10T09:38:26;-2.60;99.90
54680;DHT22;40578;53.178;5.846;2024-01-10T09:40:59;-2.60;99.90
54680;DHT22;40578;53.178;5.846;2024-01-10T09:43:30;-2.50;99.90
54680;DHT22;40578;53.178;5.846;2024-01-10T09:45:58;-2.50;99.90
54680;DHT22;40578;53.178;5.846;2024-01-10T09:48:25;-2.50;99.90
54680;DHT22;40578;53.178;5.846;2024-01-10T09:50:51;-2.40;99.90
54680;DHT22;40578;53.178;5.846;2024-01-10T09:53:22;-2.40;99.90
54680;DHT22;40578;53.178;5.846;2024-01-10T09:55:49;-2.40;99.90
54680;DHT22;40578;53.178;5.846;2024-01-10T09:58:15;-2.30;99.90
54680;DHT22;40578;53.178;5.846;2024-01-10T10:00:40;-2.40;99.90
54680;DHT22;40578;53.178;5.846;2024-01-10T10:03:10;-2.30;99.90
54680;DHT22;40578;53.178;5.846;2024-01-10T10:05:38;-2.30;99.90
54680;DHT22;40578;53.178;5.846;2024-01-10T10:08:07;-2.20;99.90
54680;DHT22;40578;53.178;5.846;2024-01-10T10:10:33;-2.20;99.90
54680;DHT22;40578;53.178;5.846;2024-01-10T10:12:59;-2.20;99.90
54680;DHT22;40578;53.178;5.846;2024-01-10T10:15:25;-2.20;99.90
54680;DHT22;40578;53.178;5.846;2024-01-10T10:17:54;-2.20;99.90
54680;DHT22;40578;53.178;5.846;2024-01-10T10:20:25;-2.20;99.90
54680;DHT22;40578;53.178;5.846;2024-01-10T10:23:20;-2.10;99.90
54680;DHT22;40578;53.178;5.846;2024-01-10T10:25:46;-1.10;99.90
54680;DHT22;40578;53.178;5.846;2024-01-10T10:28:13;-2.00;99.90
54680;DHT22;40578;53.178;5.846;2024-01-10T10:30:38;-2.00;99.90
54680;DHT22;40578;53.178;5.846;2024-01-10T10:33:05;-2.00;99.90
54680;DHT22;40578;53.178;5.846;2024-01-10T10:35:33;-1.90;99.90
54680;DHT22;40578;53.178;5.846;2024-01-10T10:37:59;-1.90;99.90
54680;DHT22;40578;53.178;5.846;2024-01-10T10:40:25;-1.90;99.90
54680;DHT22;40578;53.178;5.846;2024-01-10T10:42:57;-2.00;99.90
54680;DHT22;40578;53.178;5.846;2024-01-10T10:45:23;-1.90;99.90
54680;DHT22;40578;53.178;5.846;2024-01-10T10:48:00;-1.80;99.90
54680;DHT22;40578;53.178;5.846;2024-01-10T10:50:33;-1.80;99.90
54680;DHT22;40578;53.178;5.846;2024-01-10T10:53:00;-1.80;99.90
54680;DHT22;40578;53.178;5.846;2024-01-10T10:55:29;-1.80;99.90
54680;DHT22;40578;53.178;5.846;2024-01-10T10:57:58;-1.70;99.90
54680;DHT22;40578;53.178;5.846;2024-01-10T11:00:27;-1.70;99.90
54680;DHT22;40578;53.178;5.846;2024-01-10T11:02:54;-1.60;99.90
54680;DHT22;40578;53.178;5.846;2024-01-10T11:05:21;-1.60;99.90
54680;DHT22;40578;53.178;5.846;2024-01-10T11:07:48;-1.60;99.90
54680;DHT22;40578;53.178;5.846;2024-01-10T11:10:21;-1.60;99.90
54680;DHT22;40578;53.178;5.846;2024-01-10T11:22:37;-1.50;99.90
54680;DHT22;40578;53.178;5.846;2024-01-10T11:25:04;-1.50;99.90
54680;DHT22;40578;53.178;5.846;2024-01-10T11:27:30;-0.90;99.90
54680;DHT22;40578;53.178;5.846;2024-01-10T11:29:56;-1.40;99.90
54680;DHT22;40578;53.178;5.846;2024-01-10T11:32:25;-1.40;99.90
54680;DHT22;40578;53.178;5.846;2024-01-10T11:34:58;-1.30;99.90
54680;DHT22;40578;53.178;5.846;2024-01-10T11:37:44;-1.30;99.90
54680;DHT22;40578;53.178;5.846;2024-01-10T11:40:12;-1.30;99.90
54680;DHT22;40578;53.178;5.846;2024-01-10T11:42:45;-1.30;99.90
54680;DHT22;40578;53.178;5.846;2024-01-10T11:47:57;-1.20;99.90
54680;DHT22;40578;53.178;5.846;2024-01-10T11:50:23;-1.20;99.90
54680;DHT22;40578;53.178;5.846;2024-01-10T11:52:52;-1.10;99.90
54680;DHT22;40578;53.178;5.846;2024-01-10T11:55:46;-1.10;99.90
54680;DHT22;40578;53.178;5.846;2024-01-10T11:58:12;-1.10;99.90
54680;DHT22;40578;53.178;5.846;2024-01-10T12:00:39;-1.00;99.90
54680;DHT22;40578;53.178;5.846;2024-01-10T12:03:05;-1.00;99.90
54680;DHT22;40578;53.178;5.846;2024-01-10T12:05:32;-1.00;99.90
54680;DHT22;40578;53.178;5.846;2024-01-10T12:07:57;-1.00;99.90
54680;DHT22;40578;53.178;5.846;2024-01-10T12:10:25;-1.00;99.90
54680;DHT22;40578;53.178;5.846;2024-01-10T12:12:51;-0.90;99.90
54680;DHT22;40578;53.178;5.846;2024-01-10T12:15:17;-0.90;99.90
54680;DHT22;40578;53.178;5.846;2024-01-10T12:17:42;-0.90;99.90
54680;DHT22;40578;53.178;5.846;2024-01-10T12:20:08;-0.90;99.90
54680;DHT22;40578;53.178;5.846;2024-01-10T12:22:34;-0.80;99.90
54680;DHT22;40578;53.178;5.846;2024-01-10T12:25:10;-0.80;99.90
54680;DHT22;40578;53.178;5.846;2024-01-10T12:27:35;-0.80;99.90
54680;DHT22;40578;53.178;5.846;2024-01-10T12:30:01;-0.80;99.90
54680;DHT22;40578;53.178;5.846;2024-01-10T12:32:31;-0.80;99.90
54680;DHT22;40578;53.178;5.846;2024-01-10T12:35:04;-0.70;99.90
54680;DHT22;40578;53.178;5.846;2024-01-10T12:37:31;-0.70;99.90
54680;DHT22;40578;53.178;5.846;2024-01-10T12:39:57;-0.60;99.90
54680;DHT22;40578;53.178;5.846;2024-01-10T12:42:23;-0.60;99.90
54680;DHT22;40578;53.178;5.846;2024-01-10T12:44:49;-0.60;99.90
54680;DHT22;40578;53.178;5.846;2024-01-10T12:47:19;-0.50;99.90
54680;DHT22;40578;53.178;5.846;2024-01-10T12:49:45;0.70;99.90
54680;DHT22;40578;53.178;5.846;2024-01-10T12:52:12;-0.60;99.90
54680;DHT22;40578;53.178;5.846;2024-01-10T12:54:39;-0.50;99.90
54680;DHT22;40578;53.178;5.846;2024-01-10T12:57:04;-0.50;99.90
54680;DHT22;40578;53.178;5.846;2024-01-10T12:59:30;-0.60;99.90
54680;DHT22;40578;53.178;5.846;2024-01-10T13:01:56;-0.50;99.90
54680;DHT22;40578;53.178;5.846;2024-01-10T15:04:14;-1.40;99.90
54680;DHT22;40578;53.178;5.846;2024-01-10T15:06:44;-1.30;99.90
54680;DHT22;40578;53.178;5.846;2024-01-10T15:09:09;-1.20;99.90
54680;DHT22;40578;53.178;5.846;2024-01-10T15:11:35;-1.10;99.90
54680;DHT22;40578;53.178;5.846;2024-01-10T15:14:04;-1.10;99.90
54680;DHT22;40578;53.178;5.846;2024-01-10T15:16:29;-1.10;99.90
54680;DHT22;40578;53.178;5.846;2024-01-10T15:18:55;-1.10;99.90
54680;DHT22;40578;53.178;5.846;2024-01-10T15:21:20;-1.00;99.90
54680;DHT22;40578;53.178;5.846;2024-01-10T15:23:46;-1.00;99.90
54680;DHT22;40578;53.178;5.846;2024-01-10T15:26:16;-2.40;99.90
54680;DHT22;40578;53.178;5.846;2024-01-10T15:28:43;-1.10;99.90
54680;DHT22;40578;53.178;5.846;2024-01-10T15:31:18;-1.10;99.90
54680;DHT22;40578;53.178;5.846;2024-01-10T15:33:44;-1.10;99.90
54680;DHT22;40578;53.178;5.846;2024-01-10T15:36:11;-1.10;99.90
54680;DHT22;40578;53.178;5.846;2024-01-10T15:38:36;-1.10;99.90
54680;DHT22;40578;53.178;5.846;2024-01-10T15:41:02;-1.20;99.90
54680;DHT22;40578;53.178;5.846;2024-01-10T15:43:28;-1.30;99.90
54680;DHT22;40578;53.178;5.846;2024-01-10T15:45:53;-1.30;99.90
54680;DHT22;40578;53.178;5.846;2024-01-10T15:48:20;-1.30;99.90
54680;DHT22;40578;53.178;5.846;2024-01-10T15:50:45;-1.30;99.90
54680;DHT22;40578;53.178;5.846;2024-01-10T15:53:11;-1.40;99.90
54680;DHT22;40578;53.178;5.846;2024-01-10T15:55:37;-1.40;99.90
54680;DHT22;40578;53.178;5.846;2024-01-10T15:58:04;-1.40;99.90
54680;DHT22;40578;53.178;5.846;2024-01-10T16:00:31;-1.50;99.90
54680;DHT22;40578;53.178;5.846;2024-01-10T16:02:57;-1.50;99.90
54680;DHT22;40578;53.178;5.846;2024-01-10T16:05:22;-0.80;99.90
54680;DHT22;40578;53.178;5.846;2024-01-10T16:07:50;-1.60;99.90
54680;DHT22;40578;53.178;5.846;2024-01-10T16:10:16;-1.60;99.90
54680;DHT22;40578;53.178;5.846;2024-01-10T16:12:43;-1.60;99.90
54680;DHT22;40578;53.178;5.846;2024-01-10T16:15:09;-1.60;99.90
54680;DHT22;40578;53.178;5.846;2024-01-10T16:17:35;-1.60;99.90
54680;DHT22;40578;53.178;5.846;2024-01-10T16:20:01;-1.60;99.90
54680;DHT22;40578;53.178;5.846;2024-01-10T16:22:27;-1.70;99.90
54680;DHT22;40578;53.178;5.846;2024-01-10T16:24:53;-1.70;99.90
54680;DHT22;40578;53.178;5.846;2024-01-10T16:27:18;-1.70;99.90
54680;DHT22;40578;53.178;5.846;2024-01-10T16:29:45;-1.70;99.90
54680;DHT22;40578;53.178;5.846;2024-01-10T16:32:11;-1.70;99.90
54680;DHT22;40578;53.178;5.846;2024-01-10T16:34:36;-1.80;99.90
54680;DHT22;40578;53.178;5.846;2024-01-10T16:37:02;-1.80;99.90
54680;DHT22;40578;53.178;5.846;2024-01-10T16:39:29;-1.80;99.90
54680;DHT22;40578;53.178;5.846;2024-01-10T16:41:55;-1.70;99.90
54680;DHT22;40578;53.178;5.846;2024-01-10T16:44:21;-1.70;99.90
54680;DHT22;40578;53.178;5.846;2024-01-10T16:46:46;-1.80;99.90
54680;DHT22;40578;53.178;5.846;2024-01-10T16:49:12;-1.80;99.90
54680;DHT22;40578;53.178;5.846;2024-01-10T16:51:38;-1.80;99.90
54680;DHT22;40578;53.178;5.846;2024-01-10T16:54:05;-1.80;99.90
54680;DHT22;40578;53.178;5.846;2024-01-10T16:56:30;-1.30;99.90
54680;DHT22;40578;53.178;5.846;2024-01-10T16:58:56;-1.90;99.90
54680;DHT22;40578;53.178;5.846;2024-01-10T17:01:22;-1.90;99.90
54680;DHT22;40578;53.178;5.846;2024-01-10T17:03:47;-1.90;99.90
54680;DHT22;40578;53.178;5.846;2024-01-10T17:06:13;-1.90;99.90
54680;DHT22;40578;53.178;5.846;2024-01-10T17:08:38;-1.90;99.90
54680;DHT22;40578;53.178;5.846;2024-01-10T17:11:04;-1.90;99.90
54680;DHT22;40578;53.178;5.846;2024-01-10T17:13:30;-1.90;99.90
54680;DHT22;40578;53.178;5.846;2024-01-10T17:15:55;-1.90;99.90
54680;DHT22;40578;53.178;5.846;2024-01-10T17:18:21;-1.90;99.90
54680;DHT22;40578;53.178;5.846;2024-01-10T17:20:49;-2.00;99.90
54680;DHT22;40578;53.178;5.846;2024-01-10T17:23:15;-2.00;99.90
54680;DHT22;40578;53.178;5.846;2024-01-10T17:25:40;-1.90;99.90
54680;DHT22;40578;53.178;5.846;2024-01-10T17:28:06;-1.80;99.90
54680;DHT22;40578;53.178;5.846;2024-01-10T17:30:32;-1.90;99.90
54680;DHT22;40578;53.178;5.846;2024-01-10T17:32:59;-1.90;99.90
54680;DHT22;40578;53.178;5.846;2024-01-10T17:35:24;-1.90;99.90
54680;DHT22;40578;53.178;5.846;2024-01-10T17:37:50;-1.90;99.90